Time;durP1;ratioP1;P1;durP2;ratioP2;P2;SDS_P1;SDS_P2;PMS_P1;PMS_P2;Temp;Humidity;BMP_temperature;BMP_pressure;BME280_temperature;BME280_humidity;BME280_pressure;Samples;Min_cycle;Max_cycle;Signal;HPM_P1;HPM_P2
2023/05/20 00:00:52;;;;;;;4.82;2.15;;;15.10;99.90;;;;;;4997405;28;20029;-73
2023/05/20 00:03:19;;;;;;;2.60;1.60;;;15.20;99.90;;;;;;4997598;28;20057;-73
2023/05/20 00:05:45;;;;;;;4.00;2.10;;;15.00;99.90;;;;;;4997557;28;20022;-73
2023/05/20 00:08:11;;;;;;;3.75;1.95;;;14.90;99.90;;;;;;4997157;28;20085;-73
2023/05/20 00:10:36;;;;;;;2.78;1.65;;;14.90;99.90;;;;;;4997792;28;20022;-73
2023/05/20 00:13:02;;;;;;;4.05;1.50;;;14.90;99.90;;;;;;4997480;28;20023;-73
2023/05/20 00:15:28;;;;;;;4.05;1.92;;;15.00;99.90;;;;;;4997806;28;20027;-73
2023/05/20 00:17:54;;;;;;;2.60;1.60;;;15.10;99.90;;;;;;5021679;22;20065;-71
2023/05/20 00:20:21;;;;;;;3.47;1.73;;;15.10;99.90;;;;;;4998065;28;20049;-71
2023/05/20 00:22:46;;;;;;;4.22;1.70;;;15.00;99.90;;;;;;4997008;28;20109;-71
2023/05/20 00:25:15;;;;;;;2.60;1.70;;;15.00;99.90;;;;;;4997769;28;20054;-72
2023/05/20 00:27:40;;;;;;;2.88;2.08;;;15.00;99.90;;;;;;4997716;28;20092;-71
2023/05/20 00:30:07;;;;;;;3.22;1.75;;;15.10;99.90;;;;;;4997360;28;20026;-71
2023/05/20 00:32:33;;;;;;;4.53;1.73;;;15.10;99.90;;;;;;4996893;28;20027;-71
2023/05/20 00:34:59;;;;;;;3.33;1.67;;;15.10;99.90;;;;;;4996800;28;20121;-71
2023/05/20 00:37:25;;;;;;;4.68;1.92;;;15.20;99.90;;;;;;4996803;28;20033;-71
2023/05/20 00:39:51;;;;;;;5.53;1.88;;;14.90;99.90;;;;;;4996731;28;20113;-71
2023/05/20 00:42:25;;;;;;;4.18;2.20;;;15.00;99.90;;;;;;4996773;28;20022;-71
2023/05/20 00:44:51;;;;;;;4.78;2.10;;;15.10;99.90;;;;;;4996840;28;20026;-71
2023/05/20 00:47:18;;;;;;;4.60;2.10;;;15.00;99.90;;;;;;4997445;28;20022;-71
2023/05/20 00:49:45;;;;;;;4.63;2.05;;;15.00;99.90;;;;;;4996979;28;20023;-71
2023/05/20 00:52:12;;;;;;;4.65;1.98;;;15.10;99.90;;;;;;4996792;28;20157;-71
2023/05/20 00:54:39;;;;;;;6.10;2.20;;;15.10;99.90;;;;;;4997797;28;20019;-71
2023/05/20 00:57:06;;;;;;;5.45;2.45;;;15.10;99.90;;;;;;4997246;28;20026;-72
2023/05/20 00:59:34;;;;;;;7.53;2.42;;;15.00;99.90;;;;;;4997648;28;20032;-72
2023/05/20 01:01:59;;;;;;;3.90;2.20;;;15.00;99.90;;;;;;5001450;28;20097;-72
2023/05/20 01:04:26;;;;;;;4.97;2.10;;;14.90;99.90;;;;;;5000784;28;20045;-72
2023/05/20 01:06:51;;;;;;;7.07;2.03;;;15.00;99.90;;;;;;5001354;28;20054;-72
2023/05/20 01:09:17;;;;;;;2.85;2.03;;;15.00;99.90;;;;;;5000355;28;20030;-72
2023/05/20 01:12:10;;;;;;;9.32;2.08;;;14.80;99.90;;;;;;5000490;28;20026;-72
2023/05/20 01:14:59;;;;;;;3.33;1.90;;;14.90;99.90;;;;;;5001625;28;20022;-72
2023/05/20 01:17:29;;;;;;;3.85;2.00;;;15.00;99.90;;;;;;5000939;28;20061;-72
2023/05/20 01:19:58;;;;;;;4.40;2.35;;;15.00;99.90;;;;;;5000422;28;20038;-72
2023/05/20 01:22:25;;;;;;;3.03;2.35;;;15.10;99.90;;;;;;5001094;28;20049;-72
2023/05/20 01:24:53;;;;;;;6.40;2.33;;;15.00;99.90;;;;;;5000761;28;20030;-72
2023/05/20 01:27:21;;;;;;;3.88;2.15;;;14.80;99.90;;;;;;5000062;28;20077;-72
2023/05/20 01:29:50;;;;;;;3.58;2.15;;;14.80;99.90;;;;;;5001073;28;20044;-72
2023/05/20 01:32:31;;;;;;;4.63;2.20;;;14.90;99.90;;;;;;5001228;28;20027;-72
2023/05/20 01:34:58;;;;;;;2.78;2.20;;;14.80;99.90;;;;;;5000900;28;20023;-72
2023/05/20 01:37:24;;;;;;;4.05;1.80;;;14.80;99.90;;;;;;4999934;28;20105;-72
2023/05/20 01:39:51;;;;;;;3.53;1.98;;;14.80;99.90;;;;;;4999955;28;20022;-72
2023/05/20 01:42:18;;;;;;;6.75;1.90;;;14.90;99.90;;;;;;5000531;28;20033;-72
2023/05/20 01:44:43;;;;;;;3.55;2.38;;;15.00;99.90;;;;;;4999847;28;20018;-72
2023/05/20 01:47:09;;;;;;;3.53;1.73;;;15.00;99.90;;;;;;4999861;28;20033;-72
2023/05/20 01:49:35;;;;;;;7.07;2.22;;;14.90;99.90;;;;;;4999819;28;20054;-72
2023/05/20 01:52:00;;;;;;;4.70;2.42;;;14.80;99.90;;;;;;4999630;28;20085;-72
2023/05/20 01:54:26;;;;;;;5.57;2.20;;;14.80;99.90;;;;;;5000563;28;20026;-72
2023/05/20 01:56:51;;;;;;;4.85;2.17;;;14.80;99.90;;;;;;4999602;28;20117;-72
2023/05/20 01:59:17;;;;;;;3.22;2.17;;;14.70;99.90;;;;;;4999605;28;20030;-72
2023/05/20 02:01:43;;;;;;;6.85;2.50;;;14.90;99.90;;;;;;4999524;28;20023;-72
2023/05/20 02:04:08;;;;;;;2.47;1.90;;;14.70;99.90;;;;;;5000355;28;20034;-72
2023/05/20 02:06:34;;;;;;;3.30;2.10;;;14.80;99.90;;;;;;4999568;28;20022;-72
2023/05/20 02:08:59;;;;;;;4.82;2.58;;;14.70;99.90;;;;;;4999458;28;20034;-72
2023/05/20 02:11:25;;;;;;;3.63;2.00;;;14.50;99.90;;;;;;4998243;28;20030;-72
2023/05/20 02:13:51;;;;;;;3.67;2.10;;;14.60;99.90;;;;;;4999433;28;20031;-72
2023/05/20 02:16:17;;;;;;;3.42;2.45;;;14.70;99.90;;;;;;5000096;28;20065;-72
2023/05/20 02:18:42;;;;;;;3.22;2.53;;;14.70;99.90;;;;;;5000369;28;20030;-72
2023/05/20 02:21:08;;;;;;;8.63;2.33;;;14.70;99.90;;;;;;5000555;28;20032;-72
2023/05/20 02:23:34;;;;;;;4.47;2.28;;;14.80;99.90;;;;;;4999221;28;20097;-72
2023/05/20 02:26:00;;;;;;;6.10;2.53;;;14.70;99.90;;;;;;5000006;28;20037;-72
2023/05/20 02:28:26;;;;;;;4.05;2.50;;;14.50;99.90;;;;;;4999502;28;20027;-72
2023/05/20 02:30:51;;;;;;;3.05;2.55;;;14.50;99.90;;;;;;4999402;28;20033;-72
2023/05/20 02:33:18;;;;;;;2.83;2.03;;;14.50;99.90;;;;;;4999439;28;20024;-72
2023/05/20 02:35:43;;;;;;;4.30;2.20;;;14.60;99.90;;;;;;4998775;28;20114;-72
2023/05/20 02:38:10;;;;;;;5.25;2.55;;;14.70;99.90;;;;;;4999174;28;20042;-72
2023/05/20 02:40:36;;;;;;;4.95;2.20;;;14.80;99.90;;;;;;4999499;28;20109;-72
2023/05/20 02:43:02;;;;;;;3.42;2.20;;;14.60;99.90;;;;;;4998959;28;20046;-72
2023/05/20 02:45:27;;;;;;;3.70;2.25;;;14.80;99.90;;;;;;4998809;28;20026;-72
2023/05/20 02:47:53;;;;;;;2.92;2.28;;;14.80;99.90;;;;;;4998704;28;20027;-72
2023/05/20 02:50:18;;;;;;;13.20;2.78;;;14.90;99.90;;;;;;4999789;28;20038;-72
2023/05/20 02:52:44;;;;;;;3.45;2.58;;;14.90;99.90;;;;;;4998520;28;20026;-72
2023/05/20 02:55:10;;;;;;;7.13;2.15;;;14.90;99.90;;;;;;4998862;28;20041;-72
2023/05/20 02:57:39;;;;;;;5.03;2.28;;;14.90;99.90;;;;;;4998429;28;20058;-72
2023/05/20 03:00:09;;;;;;;5.47;2.72;;;14.70;99.90;;;;;;4999383;28;20026;-72
2023/05/20 03:02:35;;;;;;;3.35;2.20;;;14.80;99.90;;;;;;4999481;28;20019;-72
2023/05/20 03:05:01;;;;;;;6.20;2.70;;;14.90;99.90;;;;;;4998278;28;20070;-72
2023/05/20 03:07:27;;;;;;;3.95;2.55;;;14.90;99.90;;;;;;4998496;28;20014;-72
2023/05/20 03:09:52;;;;;;;5.78;2.47;;;14.80;99.90;;;;;;4998840;28;20109;-72
2023/05/20 03:12:18;;;;;;;3.50;2.22;;;14.90;99.90;;;;;;4998272;28;20034;-72
2023/05/20 03:14:43;;;;;;;4.45;2.60;;;14.70;99.90;;;;;;4998187;28;20022;-72
2023/05/20 03:17:09;;;;;;;5.05;2.53;;;14.60;99.90;;;;;;4998462;28;20125;-72
2023/05/20 03:19:34;;;;;;;4.90;2.30;;;14.50;99.90;;;;;;4998228;28;20058;-72
2023/05/20 03:22:00;;;;;;;3.80;2.28;;;14.50;99.90;;;;;;4997624;28;20090;-72
2023/05/20 03:24:27;;;;;;;4.38;2.42;;;14.70;99.90;;;;;;4998131;28;20022;-72
2023/05/20 03:26:53;;;;;;;4.07;2.72;;;14.60;99.90;;;;;;4997919;28;20037;-72
2023/05/20 03:29:18;;;;;;;3.38;2.42;;;14.50;99.90;;;;;;4997777;28;20026;-72
2023/05/20 03:31:44;;;;;;;3.17;2.35;;;14.60;99.90;;;;;;4999115;28;20109;-72
2023/05/20 03:34:09;;;;;;;5.93;2.55;;;14.60;99.90;;;;;;4998849;28;20030;-72
2023/05/20 03:36:35;;;;;;;7.28;3.13;;;14.70;99.90;;;;;;4999195;28;20022;-72
2023/05/20 03:39:01;;;;;;;4.20;2.60;;;14.60;99.90;;;;;;4997612;28;20058;-72
2023/05/20 03:41:27;;;;;;;3.72;2.33;;;14.60;99.90;;;;;;4997734;28;20029;-72
2023/05/20 03:43:52;;;;;;;4.63;2.38;;;14.60;99.90;;;;;;4997736;28;20022;-72
2023/05/20 03:46:18;;;;;;;3.13;2.03;;;14.50;99.90;;;;;;4997790;28;20034;-72
2023/05/20 03:48:43;;;;;;;3.70;2.55;;;14.70;99.90;;;;;;4998382;28;20026;-72
2023/05/20 03:51:09;;;;;;;4.18;2.65;;;14.60;99.90;;;;;;4997609;28;20117;-72
2023/05/20 03:53:34;;;;;;;7.30;2.97;;;14.60;99.90;;;;;;4997404;28;20037;-72
2023/05/20 03:56:00;;;;;;;3.42;2.80;;;14.70;99.90;;;;;;4997486;28;20057;-72
2023/05/20 03:58:28;;;;;;;7.78;3.08;;;14.80;99.90;;;;;;4997335;28;20034;-72
2023/05/20 04:00:54;;;;;;;6.90;2.83;;;14.70;99.90;;;;;;4997432;28;20019;-72
2023/05/20 04:03:19;;;;;;;7.38;2.83;;;14.70;99.90;;;;;;4998081;28;20018;-72
2023/05/20 04:05:45;;;;;;;4.90;3.33;;;14.50;99.90;;;;;;4997259;28;20023;-72
2023/05/20 04:08:12;;;;;;;5.70;2.83;;;14.50;99.90;;;;;;4997299;28;20022;-72
2023/05/20 04:10:41;;;;;;;3.67;2.47;;;14.50;99.90;;;;;;4997082;28;20022;-72
2023/05/20 04:13:07;;;;;;;4.15;2.60;;;14.60;99.90;;;;;;4997158;28;20053;-72
2023/05/20 04:15:35;;;;;;;5.28;2.97;;;14.50;99.90;;;;;;4997099;28;20081;-72
2023/05/20 04:18:00;;;;;;;6.05;2.90;;;14.70;99.90;;;;;;4997274;28;20032;-72
2023/05/20 04:20:26;;;;;;;7.15;2.75;;;14.50;99.90;;;;;;4996987;28;20014;-72
2023/05/20 04:22:52;;;;;;;6.20;2.65;;;14.40;99.90;;;;;;4997083;28;20027;-72
2023/05/20 04:25:18;;;;;;;6.22;3.15;;;14.50;99.90;;;;;;4998079;28;20030;-72
2023/05/20 04:27:44;;;;;;;5.15;3.13;;;14.50;99.90;;;;;;4997210;28;20026;-72
2023/05/20 04:30:10;;;;;;;6.43;3.15;;;14.50;99.90;;;;;;4997708;28;20022;-72
2023/05/20 04:32:36;;;;;;;3.83;2.83;;;14.50;99.90;;;;;;4997317;28;20077;-72
2023/05/20 04:35:01;;;;;;;6.25;2.65;;;14.50;99.90;;;;;;4996397;28;20031;-72
2023/05/20 04:37:27;;;;;;;4.88;2.85;;;14.50;99.90;;;;;;4996937;28;20022;-72
2023/05/20 04:39:53;;;;;;;4.80;3.30;;;14.60;99.90;;;;;;4998064;28;20023;-72
2023/05/20 04:42:20;;;;;;;7.57;2.70;;;14.70;99.90;;;;;;4997840;28;20098;-72
2023/05/20 04:44:46;;;;;;;7.15;2.90;;;14.60;99.90;;;;;;4997731;28;20097;-72
2023/05/20 04:47:13;;;;;;;7.63;3.58;;;14.50;99.90;;;;;;4997546;28;20044;-72
2023/05/20 04:49:38;;;;;;;6.05;2.75;;;14.40;99.90;;;;;;4997477;28;20030;-72
2023/05/20 04:52:04;;;;;;;10.93;3.30;;;14.40;99.90;;;;;;4997580;28;20030;-72
2023/05/20 04:54:31;;;;;;;12.35;3.40;;;14.30;99.90;;;;;;4996616;28;20121;-72
2023/05/20 04:56:57;;;;;;;4.60;2.97;;;14.40;99.90;;;;;;4996698;28;20022;-72
2023/05/20 04:59:23;;;;;;;7.63;3.17;;;14.60;99.90;;;;;;4997098;28;20077;-72
2023/05/20 05:01:49;;;;;;;6.68;2.90;;;14.50;99.90;;;;;;4997045;28;20065;-72
2023/05/20 05:04:14;;;;;;;5.38;3.30;;;14.40;99.90;;;;;;4997047;28;20061;-72
2023/05/20 05:06:40;;;;;;;4.78;3.03;;;14.20;99.90;;;;;;4997331;28;20056;-72
2023/05/20 05:09:06;;;;;;;5.57;3.30;;;14.40;99.90;;;;;;4996616;28;20018;-72
2023/05/20 05:11:32;;;;;;;7.18;3.17;;;14.30;99.90;;;;;;4997579;28;20019;-72
2023/05/20 05:13:58;;;;;;;7.85;3.63;;;14.30;99.90;;;;;;4997354;28;20026;-72
2023/05/20 05:16:23;;;;;;;5.70;3.80;;;14.20;99.90;;;;;;4996840;28;20031;-72
2023/05/20 05:18:49;;;;;;;7.70;3.63;;;14.20;99.90;;;;;;4996430;28;20034;-72
2023/05/20 05:21:14;;;;;;;8.38;3.63;;;14.40;99.90;;;;;;4997601;28;20045;-72
2023/05/20 05:23:41;;;;;;;6.50;3.22;;;14.40;99.90;;;;;;4997804;28;20022;-72
2023/05/20 05:26:07;;;;;;;8.70;3.80;;;14.60;99.90;;;;;;4997751;28;20023;-72
2023/05/20 05:28:32;;;;;;;8.30;3.60;;;14.50;99.90;;;;;;4997254;28;20027;-72
2023/05/20 05:30:58;;;;;;;8.68;4.20;;;14.40;99.90;;;;;;4996385;28;20023;-72
2023/05/20 05:33:23;;;;;;;9.82;3.80;;;14.40;99.90;;;;;;4996362;28;20023;-72
2023/05/20 05:35:49;;;;;;;7.15;3.60;;;14.50;99.90;;;;;;4996469;28;20093;-72
2023/05/20 05:38:15;;;;;;;6.78;3.90;;;14.50;99.90;;;;;;4996523;28;20019;-72
2023/05/20 05:40:41;;;;;;;9.38;4.63;;;14.40;99.90;;;;;;4996683;28;20026;-72
2023/05/20 05:43:06;;;;;;;6.38;3.83;;;14.30;99.90;;;;;;4996519;28;20061;-72
2023/05/20 05:45:32;;;;;;;11.35;4.95;;;14.20;99.90;;;;;;4997217;28;20033;-72
2023/05/20 05:47:58;;;;;;;7.55;4.15;;;14.20;99.90;;;;;;5000852;28;20023;-72
2023/05/20 05:50:23;;;;;;;10.75;3.63;;;14.30;99.90;;;;;;5000015;28;20022;-72
2023/05/20 05:52:49;;;;;;;7.72;3.85;;;14.40;99.90;;;;;;4999688;28;20030;-72
2023/05/20 05:55:14;;;;;;;9.65;4.30;;;14.60;99.90;;;;;;5000858;28;20081;-72
2023/05/20 05:57:40;;;;;;;8.77;4.60;;;14.60;99.90;;;;;;4999597;28;20235;-72
2023/05/20 06:00:06;;;;;;;7.28;4.13;;;14.50;99.90;;;;;;4999983;28;20054;-72
2023/05/20 06:02:35;;;;;;;6.90;4.10;;;14.50;99.90;;;;;;5000271;28;20084;-72
2023/05/20 06:05:04;;;;;;;9.18;4.45;;;14.50;99.90;;;;;;4999601;28;20138;-72
2023/05/20 06:07:30;;;;;;;7.57;4.53;;;14.60;99.90;;;;;;4999359;28;20030;-72
2023/05/20 06:09:56;;;;;;;8.65;4.38;;;14.50;99.90;;;;;;5000406;28;20023;-71
2023/05/20 06:12:21;;;;;;;5.90;4.28;;;14.40;99.90;;;;;;4999451;28;20085;-72
2023/05/20 06:14:47;;;;;;;8.15;4.65;;;14.50;99.90;;;;;;5000365;28;20110;-72
2023/05/20 06:17:14;;;;;;;11.07;4.47;;;14.30;99.90;;;;;;4999392;28;20035;-72
2023/05/20 06:19:39;;;;;;;6.90;4.57;;;14.40;99.90;;;;;;5022723;22;20034;-73
2023/05/20 06:22:05;;;;;;;7.22;4.80;;;14.50;99.90;;;;;;4999546;28;20082;-74
2023/05/20 06:24:33;;;;;;;8.43;5.45;;;14.60;99.90;;;;;;5000651;28;20033;-73
2023/05/20 06:26:58;;;;;;;7.32;4.32;;;14.70;99.90;;;;;;4999094;28;20030;-73
2023/05/20 06:29:24;;;;;;;7.68;4.63;;;14.70;99.90;;;;;;4999067;28;20130;-73
2023/05/20 06:31:49;;;;;;;10.10;5.22;;;14.70;99.90;;;;;;4999897;28;20037;-73
2023/05/20 06:34:15;;;;;;;7.80;4.80;;;14.80;99.90;;;;;;4998904;28;20026;-73
2023/05/20 06:36:40;;;;;;;10.63;4.97;;;14.80;99.90;;;;;;4998985;28;20026;-73
2023/05/20 06:39:11;;;;;;;11.55;5.13;;;14.80;99.90;;;;;;4998863;28;20038;-73
2023/05/20 06:41:37;;;;;;;9.15;5.13;;;14.70;99.90;;;;;;4999913;28;20027;-72
2023/05/20 06:44:03;;;;;;;10.27;5.78;;;14.70;99.90;;;;;;4999903;28;20026;-73
2023/05/20 06:46:28;;;;;;;7.15;5.28;;;14.60;99.90;;;;;;4998786;28;20026;-73
2023/05/20 06:48:54;;;;;;;7.20;4.93;;;14.50;99.90;;;;;;4998638;28;20034;-72
2023/05/20 06:51:21;;;;;;;8.38;4.72;;;14.60;99.90;;;;;;4999520;28;20023;-73
2023/05/20 06:53:46;;;;;;;10.63;5.85;;;14.60;99.90;;;;;;4999170;28;20026;-73
2023/05/20 06:56:12;;;;;;;8.35;5.10;;;14.70;99.90;;;;;;4999911;28;20029;-73
2023/05/20 06:58:37;;;;;;;9.85;5.60;;;14.80;99.90;;;;;;4998078;28;20026;-72
2023/05/20 07:01:03;;;;;;;6.63;5.10;;;14.80;99.90;;;;;;4998893;28;20022;-73
2023/05/20 07:03:28;;;;;;;7.18;4.53;;;14.80;99.90;;;;;;4999618;28;20033;-73
2023/05/20 07:05:54;;;;;;;6.10;5.18;;;15.00;99.90;;;;;;4999796;28;20140;-73
2023/05/20 07:08:20;;;;;;;8.02;5.45;;;15.00;99.90;;;;;;4998209;28;20037;-73
2023/05/20 07:10:45;;;;;;;10.05;5.68;;;15.00;99.90;;;;;;4998285;28;20022;-73
2023/05/20 07:13:11;;;;;;;10.73;5.47;;;15.00;99.90;;;;;;4999115;28;20030;-72
2023/05/20 07:15:37;;;;;;;11.45;5.95;;;15.00;99.90;;;;;;4998414;28;20037;-72
2023/05/20 07:18:02;;;;;;;9.98;6.28;;;14.90;99.90;;;;;;4999100;28;20105;-73
2023/05/20 07:20:28;;;;;;;8.40;5.07;;;14.80;99.90;;;;;;4998112;28;20089;-73
2023/05/20 07:22:54;;;;;;;12.98;6.53;;;14.80;99.90;;;;;;4998123;28;20022;-73
2023/05/20 07:25:19;;;;;;;9.13;6.00;;;14.90;99.90;;;;;;4998137;28;20030;-73
2023/05/20 07:27:45;;;;;;;10.40;5.75;;;15.00;99.90;;;;;;4998125;28;20037;-73
2023/05/20 07:30:11;;;;;;;11.60;6.55;;;14.90;99.90;;;;;;4998117;28;20018;-73
2023/05/20 07:32:36;;;;;;;13.38;6.13;;;14.90;99.90;;;;;;4998993;28;20094;-73
2023/05/20 07:35:02;;;;;;;7.93;5.63;;;15.00;99.90;;;;;;4997738;28;20046;-73
2023/05/20 07:37:27;;;;;;;10.38;5.75;;;15.00;99.90;;;;;;4997748;28;20049;-73
2023/05/20 07:39:53;;;;;;;7.88;5.35;;;15.00;99.90;;;;;;4997976;28;20018;-73
2023/05/20 07:42:18;;;;;;;11.25;5.47;;;15.00;99.90;;;;;;4997630;28;20022;-72
2023/05/20 07:44:44;;;;;;;8.70;5.47;;;15.00;99.90;;;;;;4997701;28;20029;-73
2023/05/20 07:47:10;;;;;;;9.82;5.75;;;15.00;99.90;;;;;;4997925;28;20053;-73
2023/05/20 07:49:35;;;;;;;11.30;6.35;;;15.10;99.90;;;;;;4997793;28;20065;-73
2023/05/20 07:52:01;;;;;;;8.07;5.30;;;15.10;99.90;;;;;;4997938;28;20049;-73
2023/05/20 07:54:26;;;;;;;9.45;5.88;;;15.20;99.90;;;;;;4997568;28;20034;-73
2023/05/20 07:56:52;;;;;;;13.15;7.63;;;15.50;99.90;;;;;;4997390;28;20033;-73
2023/05/20 07:59:17;;;;;;;12.05;6.60;;;15.40;99.90;;;;;;4998409;28;20022;-73
2023/05/20 08:01:43;;;;;;;11.23;6.45;;;15.40;99.90;;;;;;4997501;28;20058;-73
2023/05/20 08:04:09;;;;;;;11.77;7.22;;;15.50;99.90;;;;;;4997322;28;20019;-73
2023/05/20 08:06:34;;;;;;;11.55;6.15;;;15.60;99.90;;;;;;4998281;28;20034;-73
2023/05/20 08:09:01;;;;;;;10.60;6.65;;;15.70;99.90;;;;;;4996461;28;20026;-73
2023/05/20 08:11:27;;;;;;;13.88;7.38;;;15.70;99.90;;;;;;4997595;28;20034;-73
2023/05/20 08:13:53;;;;;;;10.27;6.10;;;15.70;99.90;;;;;;4997396;28;20056;-73
2023/05/20 08:16:20;;;;;;;10.68;6.07;;;15.50;99.90;;;;;;4997073;28;20030;-73
2023/05/20 08:18:45;;;;;;;11.52;6.25;;;15.60;99.90;;;;;;4996952;28;20042;-72
2023/05/20 08:21:11;;;;;;;12.32;6.70;;;15.50;99.90;;;;;;4998089;28;20110;-72
2023/05/20 08:23:37;;;;;;;11.20;6.45;;;15.60;99.90;;;;;;4997037;28;20018;-72
2023/05/20 08:26:02;;;;;;;7.60;5.95;;;15.50;99.90;;;;;;4997383;28;20115;-73
2023/05/20 08:28:29;;;;;;;10.82;6.65;;;15.60;99.90;;;;;;4997071;28;20026;-73
2023/05/20 08:30:55;;;;;;;9.25;6.43;;;15.60;99.90;;;;;;4996933;28;20105;-73
2023/05/20 08:33:21;;;;;;;9.65;5.85;;;15.60;99.90;;;;;;4997157;28;20060;-73
2023/05/20 08:35:47;;;;;;;9.30;6.57;;;15.60;99.90;;;;;;4997084;28;20030;-72
2023/05/20 08:38:12;;;;;;;15.98;6.20;;;15.70;99.90;;;;;;4997112;28;20054;-72
2023/05/20 08:40:38;;;;;;;9.27;6.80;;;15.80;99.90;;;;;;4996727;28;20018;-73
2023/05/20 08:43:04;;;;;;;11.88;6.47;;;15.80;99.90;;;;;;4996775;28;20025;-75
2023/05/20 08:45:35;;;;;;;11.90;6.22;;;15.80;99.90;;;;;;4998172;28;20023;-73
2023/05/20 08:48:03;;;;;;;;;;;15.90;99.90;;;;;;4997820;28;20022;-73
2023/05/20 08:50:29;;;;;;;8.85;6.03;;;16.10;99.90;;;;;;4997084;28;19906;-73
2023/05/20 08:52:55;;;;;;;9.18;6.03;;;16.20;99.90;;;;;;4997528;28;20049;-73
2023/05/20 08:55:25;;;;;;;9.32;6.40;;;16.20;99.90;;;;;;4996409;28;20090;-73
2023/05/20 08:57:53;;;;;;;8.82;6.43;;;16.30;99.90;;;;;;4996590;28;20026;-73
2023/05/20 09:00:22;;;;;;;9.95;6.38;;;16.20;99.90;;;;;;4996985;28;20029;-73
2023/05/20 09:02:48;;;;;;;8.57;6.05;;;16.30;99.90;;;;;;4997578;28;20014;-73
2023/05/20 09:05:14;;;;;;;10.20;5.90;;;16.30;99.90;;;;;;4996829;28;20022;-73
2023/05/20 09:07:42;;;;;;;10.93;6.43;;;16.40;99.90;;;;;;4996827;28;20022;-73
2023/05/20 09:10:08;;;;;;;9.65;6.43;;;16.50;99.90;;;;;;4996572;28;20129;-73
2023/05/20 09:12:34;;;;;;;9.05;6.45;;;16.50;99.90;;;;;;4996780;28;20050;-73
2023/05/20 09:15:00;;;;;;;9.90;6.25;;;16.60;99.90;;;;;;4996585;28;20019;-73
2023/05/20 09:17:25;;;;;;;10.65;6.57;;;16.80;99.90;;;;;;4996809;28;20110;-73
2023/05/20 09:19:52;;;;;;;9.48;6.10;;;16.70;99.90;;;;;;4997294;28;20061;-73
2023/05/20 09:22:25;;;;;;;8.35;6.53;;;16.80;99.90;;;;;;5001137;28;20027;-73
2023/05/20 09:24:51;;;;;;;9.45;6.38;;;16.80;99.90;;;;;;5001187;28;20157;-72
2023/05/20 09:27:19;;;;;;;10.63;6.55;;;16.80;99.90;;;;;;5001239;28;20105;-72
2023/05/20 09:29:47;;;;;;;8.10;5.72;;;16.70;99.90;;;;;;5000416;28;20026;-72
2023/05/20 09:32:13;;;;;;;8.35;5.72;;;16.80;99.90;;;;;;5000160;28;20037;-73
2023/05/20 09:34:40;;;;;;;13.20;5.95;;;16.70;99.90;;;;;;5000334;28;20022;-72
2023/05/20 09:37:07;;;;;;;10.52;6.57;;;16.60;99.90;;;;;;5000240;28;20038;-73
2023/05/20 09:39:40;;;;;;;10.25;7.30;;;16.70;99.90;;;;;;4999994;28;20022;-73
2023/05/20 09:42:19;;;;;;;9.73;6.20;;;16.70;99.90;;;;;;4999931;28;20035;-73
2023/05/20 09:44:47;;;;;;;10.07;6.78;;;16.90;99.90;;;;;;5001201;28;20050;-75
2023/05/20 09:47:14;;;;;;;9.65;7.03;;;17.10;99.90;;;;;;5000141;28;20113;-73
2023/05/20 09:49:41;;;;;;;12.05;6.72;;;17.40;99.90;;;;;;5000035;28;20038;-73
2023/05/20 09:52:07;;;;;;;15.93;6.82;;;17.70;99.90;;;;;;4999864;28;20117;-73
2023/05/20 09:54:35;;;;;;;9.82;6.20;;;17.80;99.90;;;;;;4999670;28;20026;-73
2023/05/20 09:57:02;;;;;;;11.57;6.25;;;17.80;99.90;;;;;;4999518;28;20114;-72
2023/05/20 09:59:30;;;;;;;8.98;6.20;;;17.60;99.90;;;;;;5000451;28;20046;-72
2023/05/20 10:01:55;;;;;;;8.73;5.75;;;17.40;99.90;;;;;;5000422;28;20022;-73
2023/05/20 10:04:23;;;;;;;9.07;5.90;;;17.30;99.90;;;;;;4999572;28;20051;-73
2023/05/20 10:07:20;;;;;;;14.00;7.03;;;17.40;99.90;;;;;;5000532;28;20038;-73
2023/05/20 10:10:14;;;;;;;9.00;6.15;;;17.40;99.90;;;;;;5000446;28;20096;-74
2023/05/20 10:13:12;;;;;;;7.75;6.00;;;17.50;99.90;;;;;;5000192;28;20049;-73
2023/05/20 10:16:28;;;;;;;8.77;6.30;;;17.60;99.90;;;;;;4963223;28;20041;-73
2023/05/20 10:18:57;;;;;;;13.20;6.55;;;17.50;99.90;;;;;;4937162;28;20047;-73
2023/05/20 10:21:24;;;;;;;7.22;5.53;;;17.50;99.90;;;;;;4963123;28;20031;-73
2023/05/20 10:23:50;;;;;;;15.23;6.43;;;17.80;99.90;;;;;;4979885;28;20114;-73
2023/05/20 10:26:17;;;;;;;9.50;6.35;;;17.70;99.90;;;;;;4963061;28;20038;-73
2023/05/20 10:28:44;;;;;;;11.15;6.30;;;17.60;99.90;;;;;;4979353;28;20105;-73
2023/05/20 10:31:20;;;;;;;9.63;7.05;;;17.60;99.90;;;;;;4979445;28;20058;-73
2023/05/20 10:33:46;;;;;;;14.88;6.97;;;17.60;99.90;;;;;;4978244;28;20034;-73
2023/05/20 10:36:32;;;;;;;11.15;6.22;;;17.50;99.90;;;;;;4978681;28;20068;-73
2023/05/20 10:38:58;;;;;;;13.55;6.70;;;17.40;99.90;;;;;;4978416;28;20078;-73
2023/05/20 10:41:28;;;;;;;10.60;6.57;;;17.40;99.90;;;;;;4963196;28;20050;-73
2023/05/20 10:44:06;;;;;;;8.30;5.47;;;17.50;99.90;;;;;;4978791;28;20058;-73
2023/05/20 10:46:33;;;;;;;9.73;6.07;;;17.50;99.90;;;;;;4962610;28;20037;-73
2023/05/20 10:49:01;;;;;;;11.23;6.40;;;17.50;99.90;;;;;;4978606;28;20027;-73
2023/05/20 10:51:28;;;;;;;9.95;6.35;;;17.40;99.90;;;;;;4983244;28;20126;-73
2023/05/20 10:53:55;;;;;;;10.82;6.72;;;17.50;99.90;;;;;;4999594;28;20026;-73
2023/05/20 10:56:22;;;;;;;12.82;6.60;;;17.40;99.90;;;;;;4998551;28;20120;-73
2023/05/20 10:58:49;;;;;;;8.80;6.35;;;17.50;99.90;;;;;;4999260;28;20026;-73
2023/05/20 11:01:15;;;;;;;10.70;6.35;;;17.50;99.90;;;;;;4999282;28;20030;-73
2023/05/20 11:03:43;;;;;;;9.43;6.38;;;17.30;99.90;;;;;;4999558;28;20030;-73
2023/05/20 11:06:13;;;;;;;12.40;7.45;;;17.30;99.90;;;;;;4998588;28;20026;-74
2023/05/20 11:08:38;;;;;;;8.88;6.65;;;17.20;99.90;;;;;;4999204;28;20054;-73
2023/05/20 11:11:05;;;;;;;14.25;6.85;;;17.20;99.90;;;;;;4998478;28;20033;-73
2023/05/20 11:13:30;;;;;;;10.82;6.82;;;17.10;99.90;;;;;;4998148;28;20027;-73
2023/05/20 11:15:57;;;;;;;10.57;6.85;;;17.10;99.90;;;;;;4998285;28;20056;-73
2023/05/20 11:18:28;;;;;;;9.30;6.20;;;17.10;99.90;;;;;;4998301;28;20085;-73
2023/05/20 11:20:58;;;;;;;17.15;7.50;;;17.30;99.90;;;;;;4998995;28;20015;-73
2023/05/20 11:23:25;;;;;;;14.05;7.22;;;17.40;99.90;;;;;;4998366;28;20026;-73
2023/05/20 11:25:52;;;;;;;10.38;6.70;;;17.50;99.90;;;;;;4998819;28;20034;-73
2023/05/20 11:28:21;;;;;;;9.57;6.70;;;17.30;99.90;;;;;;4998980;28;20022;-72
2023/05/20 11:30:47;;;;;;;9.63;6.90;;;17.40;99.90;;;;;;4998757;28;20112;-72
2023/05/20 11:33:15;;;;;;;12.25;6.80;;;17.70;99.90;;;;;;4997809;28;20036;-73
2023/05/20 11:35:52;;;;;;;12.00;6.28;;;17.90;99.90;;;;;;4998089;28;20033;-73
2023/05/20 11:38:19;;;;;;;7.93;5.97;;;18.00;99.90;;;;;;4998437;28;20028;-73
2023/05/20 11:40:54;;;;;;;12.05;6.57;;;18.00;99.90;;;;;;4997758;28;20023;-72
2023/05/20 11:43:22;;;;;;;13.05;6.30;;;17.90;99.90;;;;;;4998609;28;20105;-72
2023/05/20 11:45:53;;;;;;;9.43;7.22;;;17.90;99.90;;;;;;4998407;28;20031;-72
2023/05/20 11:48:19;;;;;;;;;;;18.40;99.90;;;;;;4998556;28;20030;-72
2023/05/20 11:50:46;;;;;;;8.70;6.20;;;18.80;99.90;;;;;;4997638;28;19956;-72
2023/05/20 11:53:19;;;;;;;7.80;5.82;;;18.80;99.90;;;;;;4998625;28;20026;-72
2023/05/20 11:55:52;;;;;;;10.20;6.13;;;18.80;99.90;;;;;;4997389;28;20145;-72
2023/05/20 11:58:20;;;;;;;11.52;6.50;;;18.60;99.90;;;;;;4997455;28;20049;-72
2023/05/20 12:00:46;;;;;;;11.25;6.88;;;18.60;99.90;;;;;;4998413;28;20053;-73
2023/05/20 12:03:11;;;;;;;9.43;6.28;;;18.50;99.90;;;;;;4997429;28;20026;-73
2023/05/20 12:05:38;;;;;;;13.70;6.55;;;18.50;99.90;;;;;;4997375;28;20037;-73
2023/05/20 12:08:04;;;;;;;19.33;7.45;;;18.40;99.90;;;;;;4997447;28;20074;-73
2023/05/20 12:10:30;;;;;;;11.60;6.82;;;18.30;99.90;;;;;;4997410;28;20092;-73
2023/05/20 12:12:56;;;;;;;13.15;6.97;;;18.20;99.90;;;;;;4997208;28;20034;-73
2023/05/20 12:15:21;;;;;;;14.50;7.07;;;18.00;99.90;;;;;;4997726;28;20023;-73
2023/05/20 12:17:48;;;;;;;8.77;6.47;;;17.90;99.90;;;;;;4997063;28;20037;-72
2023/05/20 12:20:15;;;;;;;9.18;6.35;;;17.90;99.90;;;;;;5021192;22;20041;-71
2023/05/20 12:22:42;;;;;;;9.57;6.57;;;17.80;99.90;;;;;;4997916;28;20022;-72
2023/05/20 12:25:18;;;;;;;11.18;6.72;;;17.70;99.90;;;;;;4998296;28;20019;-72
2023/05/20 12:27:47;;;;;;;10.27;6.53;;;17.70;99.90;;;;;;4996931;28;20058;-72
2023/05/20 12:30:21;;;;;;;13.93;6.93;;;17.80;99.90;;;;;;4997496;28;20025;-72
2023/05/20 12:32:49;;;;;;;13.43;6.95;;;17.90;99.90;;;;;;4996895;28;20086;-72
2023/05/20 12:35:15;;;;;;;10.40;6.70;;;18.00;99.90;;;;;;4997118;28;20025;-72
2023/05/20 12:37:42;;;;;;;10.50;6.82;;;17.80;99.90;;;;;;4997740;28;20077;-72
2023/05/20 12:40:10;;;;;;;11.80;7.00;;;17.70;99.90;;;;;;4997873;28;20027;-72
2023/05/20 12:42:38;;;;;;;14.85;6.63;;;17.60;99.90;;;;;;4996809;28;20027;-72
2023/05/20 12:45:05;;;;;;;13.48;7.45;;;17.80;99.90;;;;;;4997923;28;20019;-72